createdAt,value
2023-04-07T00:02:12.506Z,54.54
2023-04-07T00:04:38.985Z,54.69
2023-04-07T00:07:05.325Z,54.66
2023-04-07T00:09:31.750Z,54.70
2023-04-07T00:11:58.156Z,54.92
2023-04-07T00:14:24.526Z,54.88
2023-04-07T00:16:51.062Z,55.02
2023-04-07T00:19:17.601Z,54.81
2023-04-07T00:21:43.926Z,55.11
2023-04-07T00:24:10.862Z,54.79
2023-04-07T00:26:38.196Z,54.88
2023-04-07T00:29:04.653Z,54.97
2023-04-07T00:31:31.129Z,54.96
2023-04-07T00:33:57.939Z,54.70
2023-04-07T00:36:24.455Z,54.71
2023-04-07T00:38:50.864Z,54.81
2023-04-07T00:41:17.312Z,54.97
2023-04-07T00:43:43.970Z,55.18
2023-04-07T00:46:10.479Z,55.08
2023-04-07T00:48:37.166Z,55.20
2023-04-07T00:51:05.226Z,55.36
2023-04-07T00:53:31.738Z,55.37
2023-04-07T00:55:58.311Z,55.33
2023-04-07T00:58:24.884Z,55.80
2023-04-07T01:01:07.268Z,55.29
2023-04-07T01:03:39.573Z,55.19
2023-04-07T01:06:08.381Z,55.17
2023-04-07T01:09:16.221Z,55.31
2023-04-07T01:12:12.521Z,54.94
2023-04-07T01:14:50.855Z,55.01
2023-04-07T01:17:19.461Z,55.35
2023-04-07T01:19:55.917Z,55.36
2023-04-07T01:22:32.975Z,55.36
2023-04-07T01:25:30.541Z,55.53
2023-04-07T01:28:09.168Z,55.44
2023-04-07T01:30:39.350Z,55.44
2023-04-07T01:33:08.428Z,55.65
2023-04-07T01:35:37.053Z,55.81
2023-04-07T01:38:04.157Z,55.99
2023-04-07T01:40:32.901Z,56.24
2023-04-07T01:43:01.160Z,56.17
2023-04-07T01:45:28.757Z,56.32
2023-04-07T01:47:55.831Z,56.47
2023-04-07T01:50:23.165Z,56.26
2023-04-07T01:52:49.747Z,56.17
2023-04-07T01:55:16.366Z,56.19
2023-04-07T01:57:42.828Z,56.30
2023-04-07T02:00:09.677Z,56.48
2023-04-07T02:02:41.780Z,56.06
2023-04-07T02:05:12.469Z,56.25
2023-04-07T02:08:00.978Z,55.86
2023-04-07T02:10:29.357Z,55.92
2023-04-07T02:12:58.351Z,56.24
2023-04-07T02:15:26.187Z,56.17
2023-04-07T02:17:54.667Z,56.09
2023-04-07T02:20:22.276Z,56.18
2023-04-07T02:22:49.094Z,56.19
2023-04-07T02:25:29.565Z,55.89
2023-04-07T02:27:57.844Z,56.32
2023-04-07T02:30:25.826Z,56.30
2023-04-07T02:32:53.240Z,56.53
2023-04-07T02:35:20.504Z,56.43
2023-04-07T02:37:47.496Z,56.24
2023-04-07T02:40:14.415Z,56.64
2023-04-07T02:42:40.822Z,56.50
2023-04-07T02:45:08.969Z,56.45
2023-04-07T02:47:36.535Z,56.43
2023-04-07T02:50:03.338Z,56.49
2023-04-07T02:52:29.676Z,56.43
2023-04-07T02:54:56.168Z,56.57
2023-04-07T02:57:22.744Z,56.62
2023-04-07T02:59:49.230Z,56.41
2023-04-07T03:02:15.937Z,56.65
2023-04-07T03:04:42.506Z,56.59
2023-04-07T03:07:08.913Z,56.50
2023-04-07T03:09:35.388Z,56.58
2023-04-07T03:12:02.243Z,56.82
2023-04-07T03:14:28.598Z,56.89
2023-04-07T03:16:54.984Z,56.95
2023-04-07T03:19:21.488Z,56.87
2023-04-07T03:21:48.394Z,56.77
2023-04-07T03:24:14.800Z,56.92
2023-04-07T03:26:41.142Z,56.68
2023-04-07T03:29:07.518Z,56.79
2023-04-07T03:31:33.890Z,56.94
2023-04-07T03:34:00.382Z,56.80
2023-04-07T03:36:27.981Z,57.28
2023-04-07T03:38:54.370Z,56.93
2023-04-07T03:41:21.244Z,57.26
2023-04-07T03:43:47.582Z,57.40
2023-04-07T03:46:13.991Z,57.11
2023-04-07T03:48:40.856Z,57.40
2023-04-07T03:51:07.407Z,57.21
2023-04-07T03:53:33.726Z,57.42
2023-04-07T03:56:00.952Z,57.60
2023-04-07T03:58:27.401Z,57.58
2023-04-07T04:00:53.753Z,57.39
2023-04-07T04:03:20.258Z,57.64
2023-04-07T04:05:46.753Z,57.63
2023-04-07T04:08:13.065Z,57.67
2023-04-07T04:10:39.438Z,57.58
2023-04-07T04:13:07.895Z,57.47
2023-04-07T04:15:34.276Z,57.95
2023-04-07T04:18:01.228Z,57.80
2023-04-07T04:20:27.614Z,57.82
2023-04-07T04:22:54.005Z,57.65
2023-04-07T04:25:20.939Z,58.00
2023-04-07T04:27:47.265Z,57.93
2023-04-07T04:30:13.865Z,57.98
2023-04-07T04:32:40.883Z,58.17
2023-04-07T04:35:07.645Z,58.16
2023-04-07T04:37:34.620Z,58.06
2023-04-07T04:40:00.981Z,58.22
2023-04-07T04:42:28.024Z,58.33
2023-04-07T04:44:54.424Z,58.21
2023-04-07T04:47:20.785Z,58.60
2023-04-07T04:49:47.139Z,58.34
2023-04-07T04:52:13.522Z,58.67
2023-04-07T04:54:39.904Z,58.60
2023-04-07T04:57:06.558Z,58.56
2023-04-07T04:59:33.950Z,58.63
2023-04-07T05:02:00.425Z,58.71
2023-04-07T05:04:28.353Z,58.63
2023-04-07T05:06:54.895Z,58.72
2023-04-07T05:09:21.316Z,58.94
2023-04-07T05:11:47.927Z,58.74
2023-04-07T05:14:14.266Z,59.18
2023-04-07T05:16:40.827Z,58.87
2023-04-07T05:19:07.297Z,58.96
2023-04-07T05:21:33.748Z,59.08
2023-04-07T05:24:00.086Z,59.18
2023-04-07T05:26:27.034Z,59.05
2023-04-07T05:28:53.444Z,59.34
2023-04-07T05:31:19.805Z,59.20
2023-04-07T05:33:46.360Z,59.46
2023-04-07T05:36:12.742Z,59.27
2023-04-07T05:38:39.205Z,59.58
2023-04-07T05:41:05.580Z,59.42
2023-04-07T05:43:31.920Z,59.56
2023-04-07T05:45:58.427Z,59.26
2023-04-07T05:48:24.810Z,59.41
2023-04-07T05:50:51.226Z,59.32
2023-04-07T05:53:17.677Z,59.31
2023-04-07T05:55:44.114Z,59.28
2023-04-07T05:58:11.064Z,59.43
2023-04-07T06:00:37.534Z,59.49
2023-04-07T06:03:04.255Z,59.54
2023-04-07T06:05:30.913Z,59.51
2023-04-07T06:07:57.243Z,59.45
2023-04-07T06:10:23.634Z,59.18
2023-04-07T06:12:50.107Z,59.67
2023-04-07T06:15:16.706Z,59.51
2023-04-07T06:17:45.573Z,59.60
2023-04-07T06:20:12.488Z,59.76
2023-04-07T06:22:39.463Z,59.59
2023-04-07T06:25:06.948Z,59.51
2023-04-07T06:27:33.393Z,59.62
2023-04-07T06:29:59.762Z,59.79
2023-04-07T06:32:26.402Z,59.60
2023-04-07T06:34:52.757Z,59.63
2023-04-07T06:37:19.262Z,59.74
2023-04-07T06:39:45.835Z,59.85
2023-04-07T06:42:12.175Z,59.60
2023-04-07T06:44:38.515Z,59.79
2023-04-07T06:47:04.903Z,59.84
2023-04-07T06:49:31.266Z,59.67
2023-04-07T06:51:57.662Z,59.86
2023-04-07T06:54:24.192Z,59.91
2023-04-07T06:56:51.895Z,59.93
2023-04-07T06:59:20.075Z,59.69
2023-04-07T07:01:46.428Z,59.23
2023-04-07T07:04:12.892Z,59.24
2023-04-07T07:06:39.359Z,59.05
2023-04-07T07:09:05.740Z,59.52
2023-04-07T07:11:32.141Z,59.58
2023-04-07T07:13:58.517Z,59.45
2023-04-07T07:16:24.905Z,59.60
2023-04-07T07:18:51.485Z,59.05
2023-04-07T07:21:18.908Z,59.21
2023-04-07T07:23:45.930Z,59.08
2023-04-07T07:26:12.583Z,59.36
2023-04-07T07:28:39.071Z,59.18
2023-04-07T07:31:13.221Z,58.79
2023-04-07T07:33:41.340Z,58.84
2023-04-07T07:36:08.362Z,58.97
2023-04-07T07:38:36.082Z,58.82
2023-04-07T07:41:04.079Z,58.87
2023-04-07T07:43:30.614Z,58.75
2023-04-07T07:45:56.984Z,58.58
2023-04-07T07:48:23.415Z,58.34
2023-04-07T07:50:51.893Z,58.30
2023-04-07T07:53:18.857Z,58.22
2023-04-07T07:55:46.865Z,58.41
2023-04-07T07:58:13.277Z,58.32
2023-04-07T08:00:40.667Z,58.42
2023-04-07T08:03:07.225Z,58.00
2023-04-07T08:05:33.607Z,57.62
2023-04-07T08:08:00.058Z,57.29
2023-04-07T08:10:26.463Z,57.32
2023-04-07T08:12:52.777Z,57.46
2023-04-07T08:15:19.229Z,57.27
2023-04-07T08:17:45.635Z,57.56
2023-04-07T08:20:12.383Z,57.58
2023-04-07T08:22:38.726Z,57.52
2023-04-07T08:25:05.417Z,57.57
2023-04-07T08:27:31.781Z,57.18
2023-04-07T08:30:03.594Z,57.17
2023-04-07T08:32:41.178Z,56.93
2023-04-07T08:35:07.919Z,57.27
2023-04-07T08:37:35.127Z,56.99
2023-04-07T08:40:03.642Z,57.23
2023-04-07T08:42:33.332Z,56.93
2023-04-07T08:45:06.223Z,57.02
2023-04-07T08:47:34.230Z,57.30
2023-04-07T08:50:05.638Z,56.81
2023-04-07T08:52:44.093Z,56.40
2023-04-07T08:55:11.188Z,56.37
2023-04-07T08:57:38.117Z,56.47
2023-04-07T09:00:05.982Z,55.70
2023-04-07T09:02:37.676Z,55.26
2023-04-07T09:05:05.949Z,54.95
2023-04-07T09:07:33.755Z,54.56
2023-04-07T09:10:01.629Z,54.45
2023-04-07T09:12:29.416Z,54.37
2023-04-07T09:14:56.275Z,54.21
2023-04-07T09:17:22.941Z,54.38
2023-04-07T09:19:49.389Z,54.59
2023-04-07T09:22:15.809Z,54.60
2023-04-07T09:24:42.482Z,54.43
2023-04-07T09:27:17.828Z,55.05
2023-04-07T09:29:46.580Z,54.88
2023-04-07T09:32:17.919Z,54.96
2023-04-07T09:34:44.246Z,54.09
2023-04-07T09:37:22.089Z,53.79
2023-04-07T09:39:50.685Z,54.01
2023-04-07T09:42:17.303Z,54.04
2023-04-07T09:44:44.251Z,53.66
2023-04-07T09:47:11.181Z,53.52
2023-04-07T09:49:54.627Z,53.25
2023-04-07T09:52:46.479Z,52.57
2023-04-07T09:55:14.505Z,52.90
2023-04-07T09:57:42.078Z,51.87
2023-04-07T10:00:10.345Z,51.93
2023-04-07T10:02:36.937Z,51.62
2023-04-07T10:05:04.337Z,51.45
2023-04-07T10:07:31.390Z,51.48
2023-04-07T10:09:57.823Z,51.32
2023-04-07T10:12:24.694Z,50.88
2023-04-07T10:14:51.694Z,50.37
2023-04-07T10:17:20.425Z,50.28
2023-04-07T10:19:48.814Z,49.69
2023-04-07T10:22:16.679Z,49.43
2023-04-07T10:24:58.980Z,49.51
2023-04-07T10:27:33.993Z,48.95
2023-04-07T10:30:01.518Z,48.90
2023-04-07T10:32:27.997Z,48.33
2023-04-07T10:34:54.446Z,48.80
2023-04-07T10:37:22.593Z,48.79
2023-04-07T10:39:51.123Z,48.85
2023-04-07T10:42:36.257Z,48.45
2023-04-07T10:45:03.501Z,48.28
2023-04-07T10:47:30.802Z,47.83
2023-04-07T10:50:19.897Z,47.95
2023-04-07T10:52:48.620Z,47.63
2023-04-07T10:55:40.018Z,47.44
2023-04-07T10:58:31.662Z,47.70
2023-04-07T11:01:01.363Z,47.42
2023-04-07T11:03:29.730Z,46.99
2023-04-07T11:06:14.284Z,46.85
2023-04-07T11:08:47.577Z,46.98
2023-04-07T11:11:39.829Z,47.33
2023-04-07T11:14:06.619Z,48.08
2023-04-07T11:16:41.921Z,48.37
2023-04-07T11:19:08.758Z,48.28
2023-04-07T11:21:36.527Z,48.63
2023-04-07T11:24:03.058Z,47.68
2023-04-07T11:26:30.293Z,47.74
2023-04-07T11:28:58.796Z,47.84
2023-04-07T11:31:26.816Z,47.83
2023-04-07T11:34:00.226Z,47.86
2023-04-07T11:36:33.139Z,47.84
2023-04-07T11:39:00.739Z,48.02
2023-04-07T11:41:28.568Z,47.55
2023-04-07T11:44:11.440Z,47.80
2023-04-07T11:46:53.922Z,47.54
2023-04-07T11:49:20.648Z,47.29
2023-04-07T11:51:47.173Z,46.71
2023-04-07T11:54:13.827Z,46.32
2023-04-07T11:56:47.833Z,46.31
2023-04-07T11:59:25.032Z,46.05
2023-04-07T12:01:55.245Z,45.74
2023-04-07T12:04:23.630Z,45.70
2023-04-07T12:06:50.256Z,45.76
2023-04-07T12:09:36.071Z,45.99
2023-04-07T12:12:08.454Z,45.09
2023-04-07T12:14:35.588Z,45.22
2023-04-07T12:17:03.569Z,45.26
2023-04-07T12:19:33.584Z,45.11
2023-04-07T12:21:59.960Z,45.22
2023-04-07T12:24:27.187Z,45.19
2023-04-07T12:26:53.573Z,45.22
2023-04-07T12:29:20.337Z,45.58
2023-04-07T12:31:49.387Z,45.75
2023-04-07T12:34:17.146Z,45.58
2023-04-07T12:36:44.640Z,45.84
2023-04-07T12:39:11.087Z,45.74
2023-04-07T12:41:38.675Z,45.73
2023-04-07T12:44:05.438Z,45.83
2023-04-07T12:46:32.009Z,45.86
2023-04-07T12:48:58.464Z,45.55
2023-04-07T12:51:26.096Z,45.42
2023-04-07T12:53:54.206Z,45.29
2023-04-07T12:56:22.322Z,44.87
2023-04-07T12:58:48.778Z,44.78
2023-04-07T13:01:15.327Z,44.47
2023-04-07T13:03:41.902Z,43.90
2023-04-07T13:06:08.451Z,44.43
2023-04-07T13:08:34.885Z,43.99
2023-04-07T13:11:01.413Z,44.35
2023-04-07T13:13:28.258Z,43.69
2023-04-07T13:15:54.707Z,43.86
2023-04-07T13:18:21.739Z,43.37
2023-04-07T13:21:02.921Z,43.16
2023-04-07T13:23:49.427Z,44.29
2023-04-07T13:26:16.161Z,43.33
2023-04-07T13:28:45.787Z,43.24
2023-04-07T13:31:15.778Z,42.76
2023-04-07T13:33:42.437Z,42.45
2023-04-07T13:36:08.914Z,42.43
2023-04-07T13:38:35.310Z,42.31
2023-04-07T13:41:03.535Z,41.66
2023-04-07T13:43:30.000Z,41.66
2023-04-07T13:45:56.599Z,41.39
2023-04-07T13:48:22.989Z,41.10
2023-04-07T13:50:49.539Z,40.95
2023-04-07T13:53:17.824Z,41.09
2023-04-07T13:55:45.344Z,41.01
2023-04-07T13:58:11.790Z,40.95
2023-04-07T14:00:38.440Z,40.89
2023-04-07T14:03:04.897Z,40.67
2023-04-07T14:05:31.725Z,40.87
2023-04-07T14:07:58.121Z,40.99
2023-04-07T14:10:24.560Z,41.96
2023-04-07T14:12:50.986Z,41.47
2023-04-07T14:15:18.462Z,41.44
2023-04-07T14:17:44.932Z,41.64
2023-04-07T14:20:11.525Z,41.60
2023-04-07T14:22:37.926Z,41.21
2023-04-07T14:25:05.370Z,41.30
2023-04-07T14:27:31.832Z,41.48
2023-04-07T14:29:59.737Z,41.42
2023-04-07T14:32:29.253Z,41.17
2023-04-07T14:34:56.585Z,41.27
2023-04-07T14:37:26.244Z,41.08
2023-04-07T14:40:02.680Z,41.50
2023-04-07T14:42:29.873Z,41.76
2023-04-07T14:44:56.655Z,41.48
2023-04-07T14:47:23.534Z,41.56
2023-04-07T14:49:53.060Z,41.61
2023-04-07T14:52:20.545Z,41.72
2023-04-07T14:54:47.302Z,41.79
2023-04-07T14:57:13.736Z,41.67
2023-04-07T14:59:40.170Z,41.31
2023-04-07T15:02:06.960Z,41.16
2023-04-07T15:04:33.698Z,41.19
2023-04-07T15:07:00.182Z,41.11
2023-04-07T15:09:26.599Z,41.28
2023-04-07T15:11:53.157Z,41.41
2023-04-07T15:14:19.506Z,41.71
2023-04-07T15:16:47.811Z,41.94
2023-04-07T15:19:14.403Z,42.53
2023-04-07T15:21:40.957Z,42.44
2023-04-07T15:24:07.436Z,42.24
2023-04-07T15:26:33.998Z,42.40
2023-04-07T15:29:01.030Z,42.64
2023-04-07T15:31:28.565Z,42.61
2023-04-07T15:33:55.339Z,42.63
2023-04-07T15:36:21.683Z,42.98
2023-04-07T15:38:48.016Z,43.05
2023-04-07T15:41:16.320Z,42.74
2023-04-07T15:43:42.819Z,42.52
2023-04-07T15:46:09.241Z,42.37
2023-04-07T15:48:35.716Z,42.40
2023-04-07T15:51:02.226Z,42.35
2023-04-07T15:53:29.473Z,42.33
2023-04-07T15:55:56.009Z,42.13
2023-04-07T15:58:22.361Z,42.34
2023-04-07T16:00:48.796Z,42.49
2023-04-07T16:03:15.686Z,42.37
2023-04-07T16:05:42.152Z,42.27
2023-04-07T16:08:08.531Z,42.58
2023-04-07T16:10:34.898Z,42.39
2023-04-07T16:13:01.346Z,42.85
2023-04-07T16:15:39.319Z,42.46
2023-04-07T16:18:10.019Z,42.94
2023-04-07T16:20:36.656Z,42.98
2023-04-07T16:23:03.106Z,43.35
2023-04-07T16:25:29.892Z,43.25
2023-04-07T16:27:56.378Z,42.98
2023-04-07T16:30:23.892Z,42.93
2023-04-07T16:32:50.281Z,42.61
2023-04-07T16:35:17.054Z,42.23
2023-04-07T16:37:45.759Z,42.69
2023-04-07T16:40:12.443Z,42.13
2023-04-07T16:42:38.929Z,42.19
2023-04-07T16:45:06.082Z,42.33
2023-04-07T16:47:32.835Z,42.42
2023-04-07T16:49:59.603Z,42.50
2023-04-07T16:52:26.832Z,42.83
2023-04-07T16:54:53.548Z,42.78
2023-04-07T16:57:19.905Z,43.01
2023-04-07T16:59:47.137Z,43.07
2023-04-07T17:02:16.674Z,42.72
2023-04-07T17:04:43.913Z,42.99
2023-04-07T17:07:11.010Z,42.82
2023-04-07T17:09:37.692Z,42.99
2023-04-07T17:12:05.777Z,42.81
2023-04-07T17:14:32.270Z,43.18
2023-04-07T17:16:58.729Z,43.01
2023-04-07T17:19:25.230Z,43.15
2023-04-07T17:21:51.691Z,43.81
2023-04-07T17:24:18.328Z,43.89
2023-04-07T17:26:48.233Z,43.83
2023-04-07T17:29:15.895Z,43.91
2023-04-07T17:31:42.434Z,44.02
2023-04-07T17:34:08.953Z,44.44
2023-04-07T17:36:35.726Z,44.33
2023-04-07T17:39:03.278Z,44.61
2023-04-07T17:41:31.127Z,44.75
2023-04-07T17:43:57.654Z,44.98
2023-04-07T17:46:24.152Z,45.26
2023-04-07T17:48:51.572Z,45.55
2023-04-07T17:51:18.104Z,45.70
2023-04-07T17:53:44.515Z,45.89
2023-04-07T17:56:10.963Z,46.01
2023-04-07T17:58:37.484Z,46.42
2023-04-07T18:01:04.234Z,46.79
2023-04-07T18:03:30.782Z,46.94
2023-04-07T18:05:57.394Z,47.11
2023-04-07T18:08:24.878Z,47.46
2023-04-07T18:10:51.503Z,47.55
2023-04-07T18:13:18.648Z,47.88
2023-04-07T18:15:45.127Z,48.14
2023-04-07T18:18:12.130Z,48.25
2023-04-07T18:20:38.648Z,48.37
2023-04-07T18:23:05.615Z,48.65
2023-04-07T18:25:32.132Z,48.94
2023-04-07T18:27:59.095Z,49.48
2023-04-07T18:30:25.496Z,49.51
2023-04-07T18:32:52.016Z,49.86
2023-04-07T18:35:18.512Z,50.04
2023-04-07T18:37:44.917Z,50.24
2023-04-07T18:40:11.980Z,50.41
2023-04-07T18:42:38.428Z,50.60
2023-04-07T18:45:05.305Z,50.77
2023-04-07T18:47:31.760Z,50.77
2023-04-07T18:49:58.492Z,50.74
2023-04-07T18:52:26.302Z,50.80
2023-04-07T18:54:52.794Z,51.14
2023-04-07T18:57:19.255Z,51.29
2023-04-07T18:59:45.910Z,51.38
2023-04-07T19:02:12.543Z,51.59
2023-04-07T19:04:39.077Z,51.46
2023-04-07T19:07:05.811Z,51.48
2023-04-07T19:09:33.240Z,51.50
2023-04-07T19:11:59.660Z,51.74
2023-04-07T19:14:26.155Z,51.96
2023-04-07T19:16:52.800Z,51.89
2023-04-07T19:19:19.248Z,52.15
2023-04-07T19:21:45.737Z,52.13
2023-04-07T19:24:12.088Z,52.62
2023-04-07T19:26:38.443Z,52.47
2023-04-07T19:29:04.939Z,52.72
2023-04-07T19:31:31.470Z,52.81
2023-04-07T19:33:58.499Z,53.09
2023-04-07T19:36:25.897Z,52.88
2023-04-07T19:38:52.337Z,53.00
2023-04-07T19:41:18.722Z,53.21
2023-04-07T19:43:45.253Z,53.13
2023-04-07T19:46:11.828Z,53.26
2023-04-07T19:48:38.249Z,53.39
2023-04-07T19:51:07.120Z,53.61
2023-04-07T19:53:33.860Z,53.79
2023-04-07T19:56:01.732Z,53.62
2023-04-07T19:58:28.072Z,53.97
2023-04-07T20:00:55.386Z,53.83
2023-04-07T20:03:22.608Z,53.97
2023-04-07T20:05:49.520Z,53.57
2023-04-07T20:08:16.378Z,54.00
2023-04-07T20:10:42.718Z,53.96
2023-04-07T20:13:09.562Z,53.79
2023-04-07T20:15:36.131Z,54.08
2023-04-07T20:18:03.650Z,54.13
2023-04-07T20:20:30.171Z,54.25
2023-04-07T20:22:56.477Z,54.20
2023-04-07T20:25:22.936Z,54.10
2023-04-07T20:27:50.000Z,54.64
2023-04-07T20:30:16.421Z,54.38
2023-04-07T20:32:43.460Z,54.38
2023-04-07T20:35:11.631Z,54.61
2023-04-07T20:37:37.993Z,54.55
2023-04-07T20:40:04.878Z,54.98
2023-04-07T20:42:31.326Z,54.69
2023-04-07T20:45:02.225Z,55.05
2023-04-07T20:47:28.764Z,55.03
2023-04-07T20:49:55.263Z,55.22
2023-04-07T20:52:21.599Z,55.24
2023-04-07T20:54:48.376Z,54.81
2023-04-07T20:57:14.755Z,54.91
2023-04-07T20:59:41.074Z,55.20
2023-04-07T21:02:07.571Z,55.56
2023-04-07T21:04:34.216Z,55.24
2023-04-07T21:07:00.536Z,55.39
2023-04-07T21:09:27.038Z,55.58
2023-04-07T21:11:53.660Z,55.93
2023-04-07T21:14:20.603Z,55.76
2023-04-07T21:16:46.970Z,56.13
2023-04-07T21:19:13.289Z,56.02
2023-04-07T21:21:39.620Z,55.54
2023-04-07T21:24:06.273Z,55.80
2023-04-07T21:26:32.671Z,56.00
2023-04-07T21:28:59.004Z,55.93
2023-04-07T21:31:26.670Z,55.31
2023-04-07T21:33:53.492Z,54.95
2023-04-07T21:36:19.926Z,55.47
2023-04-07T21:38:46.296Z,55.80
2023-04-07T21:41:12.686Z,55.80
2023-04-07T21:43:39.362Z,56.00
2023-04-07T21:46:06.268Z,55.65
2023-04-07T21:48:34.693Z,55.31
2023-04-07T21:51:01.813Z,55.43
2023-04-07T21:53:28.258Z,53.97
2023-04-07T21:55:54.582Z,54.00
2023-04-07T21:58:23.338Z,53.17
2023-04-07T22:00:50.007Z,52.46
2023-04-07T22:03:18.443Z,52.18
2023-04-07T22:05:45.795Z,52.42
2023-04-07T22:08:13.014Z,51.66
2023-04-07T22:10:39.493Z,51.56
2023-04-07T22:13:06.116Z,51.36
2023-04-07T22:15:32.470Z,50.87
2023-04-07T22:17:58.958Z,50.73
2023-04-07T22:20:25.864Z,50.66
2023-04-07T22:22:54.037Z,50.55
2023-04-07T22:25:20.537Z,49.79
2023-04-07T22:27:46.892Z,49.85
2023-04-07T22:30:13.263Z,50.06
2023-04-07T22:32:41.276Z,49.36
2023-04-07T22:35:08.023Z,49.32
2023-04-07T22:37:34.490Z,49.20
2023-04-07T22:40:00.991Z,48.98
2023-04-07T22:42:27.349Z,48.73
2023-04-07T22:44:53.803Z,48.85
2023-04-07T22:47:21.916Z,48.91
2023-04-07T22:49:48.362Z,49.01
2023-04-07T22:52:14.690Z,48.91
2023-04-07T22:54:41.068Z,48.77
2023-04-07T22:57:07.501Z,48.50
2023-04-07T22:59:33.852Z,48.44
2023-04-07T23:02:00.294Z,48.50
2023-04-07T23:04:27.333Z,48.77
2023-04-07T23:06:53.778Z,48.64
2023-04-07T23:09:20.160Z,48.29
2023-04-07T23:11:47.313Z,48.66
2023-04-07T23:14:13.989Z,48.65
2023-04-07T23:16:40.676Z,48.40
2023-04-07T23:19:11.477Z,48.68
2023-04-07T23:21:39.000Z,48.61
2023-04-07T23:24:05.446Z,48.34
2023-04-07T23:26:31.969Z,48.40
2023-04-07T23:28:58.383Z,48.30
2023-04-07T23:31:24.909Z,48.19
2023-04-07T23:33:51.517Z,48.34
2023-04-07T23:36:18.130Z,48.56
2023-04-07T23:38:44.610Z,48.40
2023-04-07T23:41:10.938Z,48.40
2023-04-07T23:43:37.355Z,49.08
2023-04-07T23:46:03.773Z,48.80
2023-04-07T23:48:31.034Z,48.72
2023-04-07T23:50:59.676Z,48.72
2023-04-07T23:53:26.118Z,49.01
2023-04-07T23:55:52.487Z,48.97
2023-04-07T23:58:18.817Z,48.78
